Time;durP1;ratioP1;P1;durP2;ratioP2;P2;SDS_P1;SDS_P2;PMS_P1;PMS_P2;Temp;Humidity;BMP_temperature;BMP_pressure;BME280_temperature;BME280_humidity;BME280_pressure;Samples;Min_cycle;Max_cycle;Signal;HPM_P1;HPM_P2
2021/11/14 00:00:08;;;;;;;;;;;16.40;84.00;;;;;;4264354;27;20096;-70
2021/11/14 00:02:11;;;;;;;;;;;16.40;84.00;;;;;;4264536;27;19922;-70
2021/11/14 00:04:15;;;;;;;;;;;16.40;84.00;;;;;;4241348;27;19960;-70
2021/11/14 00:06:20;;;;;;;;;;;16.40;83.90;;;;;;4263859;27;19919;-70
2021/11/14 00:08:23;;;;;;;;;;;16.40;83.90;;;;;;4275647;27;19932;-70
2021/11/14 00:10:26;;;;;;;;;;;16.40;84.00;;;;;;4269083;27;20351;-70
2021/11/14 00:12:29;;;;;;;;;;;16.40;83.90;;;;;;4269019;27;19949;-71
2021/11/14 00:14:32;;;;;;;;;;;16.40;83.90;;;;;;4274472;27;19959;-71
2021/11/14 00:16:35;;;;;;;;;;;16.40;84.00;;;;;;4263534;27;19915;-71
2021/11/14 00:18:38;;;;;;;;;;;16.40;83.90;;;;;;4274852;27;19937;-70
2021/11/14 00:20:42;;;;;;;;;;;16.40;83.90;;;;;;4269788;27;20134;-70
2021/11/14 00:22:45;;;;;;;;;;;16.40;84.00;;;;;;4267865;27;19919;-71
2021/11/14 00:24:48;;;;;;;;;;;16.30;83.90;;;;;;4274952;27;19915;-71
2021/11/14 00:26:51;;;;;;;;;;;16.30;83.80;;;;;;4262806;27;19915;-71
2021/11/14 00:28:54;;;;;;;;;;;16.30;83.90;;;;;;4257762;27;19916;-71
2021/11/14 00:30:57;;;;;;;;;;;16.40;83.90;;;;;;4244251;27;19969;-71
2021/11/14 00:33:00;;;;;;;;;;;16.30;83.90;;;;;;4267246;27;20140;-70
2021/11/14 00:35:03;;;;;;;;;;;16.30;83.80;;;;;;4273267;27;19915;-70
2021/11/14 00:37:07;;;;;;;;;;;16.30;83.90;;;;;;4270713;27;19914;-71
2021/11/14 00:39:13;;;;;;;;;;;16.30;83.80;;;;;;4257829;27;19915;-71
2021/11/14 00:41:16;;;;;;;;;;;16.30;83.90;;;;;;4244104;27;20330;-70
2021/11/14 00:43:18;;;;;;;;;;;16.30;83.80;;;;;;4265591;27;19969;-71
2021/11/14 00:45:21;;;;;;;;;;;16.40;84.00;;;;;;4257519;27;20036;-70
2021/11/14 00:47:24;;;;;;;;;;;16.40;84.00;;;;;;4270459;27;19915;-71
2021/11/14 00:49:27;;;;;;;;;;;16.40;83.90;;;;;;4257777;27;19922;-70
2021/11/14 00:51:30;;;;;;;;;;;16.40;84.00;;;;;;4261049;27;19968;-70
2021/11/14 00:53:34;;;;;;;;;;;16.30;83.80;;;;;;4266422;27;19919;-71
2021/11/14 00:55:37;;;;;;;;;;;16.30;83.90;;;;;;4257423;27;19916;-70
2021/11/14 00:57:39;;;;;;;;;;;16.30;83.80;;;;;;4269280;27;19918;-71
2021/11/14 00:59:42;;;;;;;;;;;16.30;83.80;;;;;;4257965;27;19915;-70
2021/11/14 01:01:45;;;;;;;;;;;16.30;83.80;;;;;;4259875;27;19915;-70
2021/11/14 01:03:48;;;;;;;;;;;16.30;83.80;;;;;;4248993;27;19916;-70
2021/11/14 01:05:51;;;;;;;;;;;16.30;83.80;;;;;;4257368;27;19952;-70
2021/11/14 01:07:53;;;;;;;;;;;16.30;83.90;;;;;;4268414;27;19960;-70
2021/11/14 01:09:57;;;;;;;;;;;16.30;83.80;;;;;;4258869;27;19915;-71
2021/11/14 01:12:00;;;;;;;;;;;16.30;83.80;;;;;;4259066;27;19922;-70
2021/11/14 01:14:03;;;;;;;;;;;16.30;83.90;;;;;;4267742;27;19915;-73
2021/11/14 01:16:07;;;;;;;;;;;16.30;83.90;;;;;;4257274;27;19916;-71
2021/11/14 01:18:11;;;;;;;;;;;16.30;83.90;;;;;;4261710;27;19919;-71
2021/11/14 01:20:16;;;;;;;;;;;16.30;83.90;;;;;;4272249;27;19915;-70
2021/11/14 01:22:18;;;;;;;;;;;16.30;83.90;;;;;;4269838;27;20133;-71
2021/11/14 01:24:21;;;;;;;;;;;16.30;83.90;;;;;;4268233;27;20119;-71
2021/11/14 01:26:25;;;;;;;;;;;16.30;83.90;;;;;;4257404;27;19968;-71
2021/11/14 01:28:28;;;;;;;;;;;16.30;83.90;;;;;;4256657;27;19923;-70
2021/11/14 01:30:33;;;;;;;;;;;16.30;83.90;;;;;;4271322;27;19915;-70
2021/11/14 01:32:36;;;;;;;;;;;16.30;83.90;;;;;;4272636;27;19915;-71
2021/11/14 01:34:38;;;;;;;;;;;16.20;83.90;;;;;;4244095;27;19969;-71
2021/11/14 01:36:41;;;;;;;;;;;16.20;83.80;;;;;;4273899;27;19915;-71
2021/11/14 01:38:44;;;;;;;;;;;16.30;83.90;;;;;;4245932;27;19922;-71
2021/11/14 01:40:47;;;;;;;;;;;16.20;83.80;;;;;;4270625;27;19915;-70
2021/11/14 01:42:51;;;;;;;;;;;16.30;83.90;;;;;;4272441;27;19919;-71
2021/11/14 01:44:54;;;;;;;;;;;16.30;83.90;;;;;;4261212;27;19960;-70
2021/11/14 01:46:57;;;;;;;;;;;16.20;83.80;;;;;;4255508;27;19915;-70
2021/11/14 01:49:00;;;;;;;;;;;16.20;83.80;;;;;;4260161;27;19915;-71
2021/11/14 01:51:23;;;;;;;;;;;16.20;83.80;;;;;;4272349;27;19915;-70
2021/11/14 01:53:26;;;;;;;;;;;16.20;83.80;;;;;;4258563;27;19959;-71
2021/11/14 01:55:30;;;;;;;;;;;16.20;83.90;;;;;;4266504;27;19960;-71
2021/11/14 01:57:36;;;;;;;;;;;16.20;83.90;;;;;;4256738;27;20204;-71
2021/11/14 01:59:41;;;;;;;;;;;16.20;83.80;;;;;;4267730;27;19986;-71
2021/11/14 02:01:44;;;;;;;;;;;16.20;83.80;;;;;;4257368;27;19983;-73
2021/11/14 02:03:48;;;;;;;;;;;16.20;83.80;;;;;;4261211;27;19975;-71
2021/11/14 02:05:51;;;;;;;;;;;16.20;83.80;;;;;;4263079;27;19923;-71
2021/11/14 02:07:57;;;;;;;;;;;16.20;83.80;;;;;;4272336;27;19915;-71
2021/11/14 02:09:59;;;;;;;;;;;16.20;83.90;;;;;;4243851;27;19938;-71
2021/11/14 02:12:02;;;;;;;;;;;16.20;83.80;;;;;;4272087;27;20207;-71
2021/11/14 02:14:05;;;;;;;;;;;16.20;83.80;;;;;;4271335;27;19919;-71
2021/11/14 02:16:09;;;;;;;;;;;16.20;83.80;;;;;;4262736;27;19933;-70
2021/11/14 02:18:13;;;;;;;;;;;16.20;83.80;;;;;;4267387;27;19952;-71
2021/11/14 02:20:18;;;;;;;;;;;16.20;83.80;;;;;;4267288;27;20107;-70
2021/11/14 02:22:20;;;;;;;;;;;16.20;84.50;;;;;;4257949;27;19968;-70
2021/11/14 02:24:23;;;;;;;;;;;16.20;83.80;;;;;;4257461;27;19915;-70
2021/11/14 02:26:26;;;;;;;;;;;16.20;83.80;;;;;;4266952;27;19915;-71
2021/11/14 02:28:28;;;;;;;;;;;16.20;83.80;;;;;;4256085;27;19915;-71
2021/11/14 02:30:31;;;;;;;;;;;16.20;83.80;;;;;;4260200;27;19915;-71
2021/11/14 02:32:34;;;;;;;;;;;16.20;83.80;;;;;;4270415;27;19915;-70
2021/11/14 02:34:52;;;;;;;;;;;16.20;83.80;;;;;;4271230;27;19915;-70
2021/11/14 02:36:56;;;;;;;;;;;16.20;83.80;;;;;;4265614;27;19915;-70
2021/11/14 02:38:59;;;;;;;;;;;16.20;83.90;;;;;;4255729;27;19915;-70
2021/11/14 02:41:02;;;;;;;;;;;16.20;83.90;;;;;;4266825;27;20126;-70
2021/11/14 02:43:05;;;;;;;;;;;16.20;83.90;;;;;;4257141;27;19921;-71
2021/11/14 02:45:08;;;;;;;;;;;16.20;83.80;;;;;;4257793;27;19920;-71
2021/11/14 02:47:11;;;;;;;;;;;16.20;83.80;;;;;;4266402;27;19915;-71
2021/11/14 02:49:14;;;;;;;;;;;16.20;83.80;;;;;;4255841;27;19915;-70
2021/11/14 02:51:18;;;;;;;;;;;16.20;83.90;;;;;;4260283;27;19915;-73
2021/11/14 02:53:23;;;;;;;;;;;16.10;83.80;;;;;;4271149;27;19915;-71
2021/11/14 02:55:26;;;;;;;;;;;16.10;83.80;;;;;;4268705;27;19919;-71
2021/11/14 02:57:28;;;;;;;;;;;16.10;83.80;;;;;;4266514;27;19923;-71
2021/11/14 02:59:33;;;;;;;;;;;16.10;83.80;;;;;;4256024;27;20207;-70
2021/11/14 03:01:38;;;;;;;;;;;16.10;83.80;;;;;;4247992;27;19915;-71
2021/11/14 03:03:42;;;;;;;;;;;16.10;83.80;;;;;;4257806;27;20211;-71
2021/11/14 03:05:45;;;;;;;;;;;16.10;83.80;;;;;;4257448;27;19915;-71
2021/11/14 03:07:49;;;;;;;;;;;16.10;83.80;;;;;;4267099;27;19915;-70
2021/11/14 03:09:53;;;;;;;;;;;16.10;83.80;;;;;;4256136;28;19975;-70
2021/11/14 03:11:59;;;;;;;;;;;16.10;83.80;;;;;;4265594;27;19915;-71
2021/11/14 03:14:02;;;;;;;;;;;16.10;83.80;;;;;;4257737;27;19960;-70
2021/11/14 03:16:06;;;;;;;;;;;16.10;83.80;;;;;;4259694;27;19915;-71
2021/11/14 03:18:09;;;;;;;;;;;16.10;83.80;;;;;;4256525;27;19967;-72
2021/11/14 03:20:12;;;;;;;;;;;16.10;83.80;;;;;;4255944;27;19921;-71
2021/11/14 03:22:15;;;;;;;;;;;16.10;83.70;;;;;;4260074;27;19915;-70
2021/11/14 03:24:17;;;;;;;;;;;16.10;83.80;;;;;;4252083;27;20295;-70
2021/11/14 03:26:22;;;;;;;;;;;16.10;83.70;;;;;;4271055;27;19960;-71
2021/11/14 03:28:25;;;;;;;;;;;16.10;83.70;;;;;;4255320;27;19945;-70
2021/11/14 03:30:29;;;;;;;;;;;16.10;83.70;;;;;;4255983;27;19915;-71
2021/11/14 03:32:31;;;;;;;;;;;16.10;83.80;;;;;;4265073;27;19959;-71
2021/11/14 03:34:34;;;;;;;;;;;16.10;83.80;;;;;;4242510;27;19970;-70
2021/11/14 03:36:37;;;;;;;;;;;16.10;83.80;;;;;;4271067;27;19919;-71
2021/11/14 03:38:41;;;;;;;;;;;16.10;83.80;;;;;;4261120;27;19921;-71
2021/11/14 03:40:44;;;;;;;;;;;16.10;83.80;;;;;;4272657;27;20218;-71
2021/11/14 03:42:48;;;;;;;;;;;16.10;83.80;;;;;;4264226;27;19915;-71
2021/11/14 03:44:51;;;;;;;;;;;16.10;83.90;;;;;;4240119;28;20119;-71
2021/11/14 03:46:54;;;;;;;;;;;16.10;83.90;;;;;;4256845;27;20103;-71
2021/11/14 03:48:57;;;;;;;;;;;16.10;83.80;;;;;;4267013;27;19915;-71
2021/11/14 03:50:59;;;;;;;;;;;16.10;83.80;;;;;;4255491;28;19915;-71
2021/11/14 03:53:02;;;;;;;;;;;16.10;83.90;;;;;;4263244;27;19915;-72
2021/11/14 03:55:06;;;;;;;;;;;16.00;83.80;;;;;;4260068;27;19953;-70
2021/11/14 03:57:09;;;;;;;;;;;16.10;83.90;;;;;;4256632;27;19928;-71
2021/11/14 03:59:13;;;;;;;;;;;16.10;83.80;;;;;;4267059;27;19915;-71
2021/11/14 04:01:18;;;;;;;;;;;16.10;83.80;;;;;;4255633;28;20149;-70
2021/11/14 04:03:21;;;;;;;;;;;16.10;83.80;;;;;;4262920;27;19914;-71
2021/11/14 04:05:25;;;;;;;;;;;16.00;83.70;;;;;;4260111;27;19915;-71
2021/11/14 04:07:28;;;;;;;;;;;16.00;83.80;;;;;;4256353;27;19952;-71
2021/11/14 04:09:30;;;;;;;;;;;16.00;83.80;;;;;;4268093;27;19915;-71
2021/11/14 04:11:33;;;;;;;;;;;16.00;83.80;;;;;;4258464;27;20141;-71
2021/11/14 04:13:36;;;;;;;;;;;16.10;83.80;;;;;;4265035;27;19915;-71
2021/11/14 04:15:40;;;;;;;;;;;16.10;83.80;;;;;;4245950;27;19961;-71
2021/11/14 04:17:43;;;;;;;;;;;16.00;83.80;;;;;;4259811;27;19922;-70
2021/11/14 04:19:46;;;;;;;;;;;16.00;83.80;;;;;;4269588;27;20141;-71
2021/11/14 04:21:49;;;;;;;;;;;16.10;83.80;;;;;;4258631;27;19923;-71
2021/11/14 04:23:51;;;;;;;;;;;16.00;83.70;;;;;;4259767;27;19922;-70
2021/11/14 04:25:54;;;;;;;;;;;16.00;83.80;;;;;;4268752;27;19935;-71
2021/11/14 04:27:57;;;;;;;;;;;16.10;83.80;;;;;;4266770;27;20245;-71
2021/11/14 04:30:00;;;;;;;;;;;16.00;83.80;;;;;;4263674;27;19915;-71
2021/11/14 04:32:05;;;;;;;;;;;16.00;83.80;;;;;;4275646;27;19915;-71
2021/11/14 04:34:08;;;;;;;;;;;16.00;83.80;;;;;;4269507;27;19915;-70
2021/11/14 04:36:10;;;;;;;;;;;16.10;83.80;;;;;;4263443;27;19915;-70
2021/11/14 04:38:13;;;;;;;;;;;16.00;83.80;;;;;;4258293;27;19960;-71
2021/11/14 04:40:17;;;;;;;;;;;16.00;83.80;;;;;;4262162;27;19919;-71
2021/11/14 04:42:20;;;;;;;;;;;16.00;83.90;;;;;;4274875;27;19968;-71
2021/11/14 04:44:24;;;;;;;;;;;16.10;83.80;;;;;;4269836;27;19963;-71
2021/11/14 04:46:26;;;;;;;;;;;16.10;83.90;;;;;;4265625;27;19915;-70
2021/11/14 04:48:31;;;;;;;;;;;16.00;83.80;;;;;;4257722;27;20141;-71
2021/11/14 04:50:34;;;;;;;;;;;16.00;83.90;;;;;;4270375;27;19915;-71
2021/11/14 04:52:37;;;;;;;;;;;16.00;83.90;;;;;;4257921;27;19915;-70
2021/11/14 04:54:40;;;;;;;;;;;16.10;83.90;;;;;;4261752;27;19921;-70
2021/11/14 04:56:43;;;;;;;;;;;16.00;83.80;;;;;;4266212;27;19915;-71
2021/11/14 04:58:46;;;;;;;;;;;16.00;83.80;;;;;;4239637;28;20287;-70
2021/11/14 05:00:50;;;;;;;;;;;16.00;83.80;;;;;;4269729;27;19923;-71
2021/11/14 05:02:54;;;;;;;;;;;16.00;84.00;;;;;;4256871;27;19992;-71
2021/11/14 05:04:58;;;;;;;;;;;16.00;84.00;;;;;;4259862;27;19915;-71
2021/11/14 05:07:00;;;;;;;;;;;16.00;83.90;;;;;;4266454;27;20129;-71
2021/11/14 05:09:03;;;;;;;;;;;16.00;83.90;;;;;;4256729;27;19960;-71
2021/11/14 05:11:06;;;;;;;;;;;16.00;83.90;;;;;;4268805;27;19915;-71
2021/11/14 05:13:09;;;;;;;;;;;16.00;83.90;;;;;;4258241;27;19952;-72
2021/11/14 05:15:11;;;;;;;;;;;16.00;83.90;;;;;;4260153;27;19919;-72
2021/11/14 05:17:14;;;;;;;;;;;16.00;83.80;;;;;;4267395;27;19916;-72
2021/11/14 05:19:17;;;;;;;;;;;16.00;83.90;;;;;;4260522;27;19968;-71
2021/11/14 05:21:21;;;;;;;;;;;16.00;83.90;;;;;;4260771;27;19916;-71
2021/11/14 05:23:24;;;;;;;;;;;16.00;83.90;;;;;;4273096;27;19919;-71
2021/11/14 05:25:26;;;;;;;;;;;16.00;83.90;;;;;;4272234;27;19951;-70
2021/11/14 05:27:31;;;;;;;;;;;16.00;83.90;;;;;;4258260;27;19960;-70
2021/11/14 05:29:34;;;;;;;;;;;16.00;83.90;;;;;;4257080;27;19960;-70
2021/11/14 05:31:37;;;;;;;;;;;16.00;83.90;;;;;;4261187;27;19921;-71
2021/11/14 05:33:40;;;;;;;;;;;16.00;83.90;;;;;;4271989;27;19951;-70
2021/11/14 05:35:45;;;;;;;;;;;16.00;84.00;;;;;;4269161;27;20115;-70
2021/11/14 05:37:49;;;;;;;;;;;16.00;83.90;;;;;;4268153;27;19959;-70
2021/11/14 05:39:51;;;;;;;;;;;15.90;84.00;;;;;;4256888;27;19923;-70
2021/11/14 05:41:54;;;;;;;;;;;16.00;84.00;;;;;;4266857;27;19921;-71
2021/11/14 05:43:57;;;;;;;;;;;16.00;83.90;;;;;;4259418;27;19915;-71
2021/11/14 05:45:59;;;;;;;;;;;16.00;83.90;;;;;;4257862;27;20149;-70
2021/11/14 05:48:03;;;;;;;;;;;15.90;83.90;;;;;;4268487;27;19937;-71
2021/11/14 05:50:07;;;;;;;;;;;15.90;83.90;;;;;;4256870;27;19915;-71
2021/11/14 05:52:10;;;;;;;;;;;16.00;84.00;;;;;;4265669;27;19914;-70
2021/11/14 05:54:14;;;;;;;;;;;16.00;84.00;;;;;;4260019;27;19923;-72
2021/11/14 05:56:17;;;;;;;;;;;16.00;83.90;;;;;;4257784;27;19915;-71
2021/11/14 05:58:30;;;;;;;;;;;16.00;83.90;;;;;;4268367;27;19922;-70
2021/11/14 06:01:05;;;;;;;;;;;15.90;83.90;;;;;;4256927;27;20097;-72
2021/11/14 06:03:24;;;;;;;;;;;15.90;83.90;;;;;;4262389;27;19920;-72
2021/11/14 06:05:29;;;;;;;;;;;16.00;84.00;;;;;;4273803;27;20243;-71
2021/11/14 06:07:31;;;;;;;;;;;15.90;84.00;;;;;;4265448;27;20134;-70
2021/11/14 06:09:36;;;;;;;;;;;15.90;84.10;;;;;;4268817;27;20211;-71
2021/11/14 06:11:38;;;;;;;;;;;15.90;84.00;;;;;;4253554;27;19919;-71
2021/11/14 06:13:43;;;;;;;;;;;15.90;84.00;;;;;;4261834;27;19922;-71
2021/11/14 06:15:45;;;;;;;;;;;15.90;84.10;;;;;;4273229;27;19915;-70
2021/11/14 06:17:48;;;;;;;;;;;15.90;84.30;;;;;;4268451;27;19937;-71
2021/11/14 06:19:51;;;;;;;;;;;15.90;84.10;;;;;;4261395;27;19996;-70
2021/11/14 06:21:54;;;;;;;;;;;15.90;84.00;;;;;;4257677;27;20209;-71
2021/11/14 06:23:57;;;;;;;;;;;15.90;84.00;;;;;;4267815;27;19936;-70
2021/11/14 06:26:01;;;;;;;;;;;15.90;84.00;;;;;;4256218;27;19921;-70
2021/11/14 06:28:04;;;;;;;;;;;15.90;84.10;;;;;;4261756;27;19919;-71
2021/11/14 06:30:08;;;;;;;;;;;15.90;84.10;;;;;;4261784;27;19919;-70
2021/11/14 06:32:11;;;;;;;;;;;15.90;84.10;;;;;;4257621;27;19915;-71
2021/11/14 06:34:14;;;;;;;;;;;15.90;84.10;;;;;;4249609;27;19916;-70
2021/11/14 06:36:17;;;;;;;;;;;15.90;84.10;;;;;;4272188;27;19923;-69
2021/11/14 06:38:20;;;;;;;;;;;15.90;84.10;;;;;;4243974;27;19966;-70
2021/11/14 06:40:23;;;;;;;;;;;15.90;84.10;;;;;;4272803;27;19950;-71
2021/11/14 06:42:27;;;;;;;;;;;15.90;84.10;;;;;;4272415;27;19915;-70
2021/11/14 06:44:29;;;;;;;;;;;15.90;84.10;;;;;;4260895;27;19952;-73
2021/11/14 06:46:32;;;;;;;;;;;15.90;84.10;;;;;;4273538;27;19919;-72
2021/11/14 06:48:35;;;;;;;;;;;15.90;84.10;;;;;;4267980;27;19923;-71
2021/11/14 06:50:38;;;;;;;;;;;15.90;84.10;;;;;;4265702;27;20135;-71
2021/11/14 06:52:41;;;;;;;;;;;15.90;84.20;;;;;;4272616;27;19915;-74
2021/11/14 06:54:44;;;;;;;;;;;15.90;84.20;;;;;;4260107;27;19952;-71
2021/11/14 06:56:52;;;;;;;;;;;15.90;84.30;;;;;;4273183;27;19915;-70
2021/11/14 06:58:56;;;;;;;;;;;15.90;84.20;;;;;;4267411;27;19915;-71
2021/11/14 07:00:59;;;;;;;;;;;15.90;84.20;;;;;;4265547;27;19952;-70
2021/11/14 07:03:02;;;;;;;;;;;15.90;84.30;;;;;;4272487;27;19915;-71
2021/11/14 07:05:05;;;;;;;;;;;15.90;84.30;;;;;;4260320;27;19923;-71
2021/11/14 07:07:08;;;;;;;;;;;15.90;84.30;;;;;;4272637;27;19927;-70
2021/11/14 07:09:11;;;;;;;;;;;15.90;84.20;;;;;;4268232;27;19924;-72
2021/11/14 07:11:17;;;;;;;;;;;15.90;84.10;;;;;;4264788;27;19974;-70
2021/11/14 07:13:20;;;;;;;;;;;15.90;84.10;;;;;;4272910;27;19928;-71
2021/11/14 07:15:24;;;;;;;;;;;15.90;84.10;;;;;;4268453;27;19915;-71
2021/11/14 07:17:26;;;;;;;;;;;15.90;84.10;;;;;;4255409;28;19916;-72
2021/11/14 07:19:29;;;;;;;;;;;15.90;84.10;;;;;;4264730;27;19923;-71
2021/11/14 07:21:32;;;;;;;;;;;15.90;84.20;;;;;;4264173;27;19976;-71
2021/11/14 07:23:34;;;;;;;;;;;15.80;84.20;;;;;;4255542;28;19919;-70
2021/11/14 07:25:37;;;;;;;;;;;15.90;84.20;;;;;;4267670;27;19921;-70
2021/11/14 07:27:40;;;;;;;;;;;15.90;84.20;;;;;;4255948;27;19915;-71
2021/11/14 07:29:43;;;;;;;;;;;15.90;84.30;;;;;;4259547;27;19915;-70
2021/11/14 07:31:47;;;;;;;;;;;15.80;84.30;;;;;;4245323;27;20093;-70
2021/11/14 07:33:50;;;;;;;;;;;15.90;84.30;;;;;;4273204;27;19935;-72
2021/11/14 07:35:52;;;;;;;;;;;15.80;84.20;;;;;;4270806;27;20110;-70
2021/11/14 07:37:55;;;;;;;;;;;15.90;84.80;;;;;;4256752;27;19922;-71
2021/11/14 07:39:58;;;;;;;;;;;15.80;84.20;;;;;;4257545;27;19919;-71
2021/11/14 07:42:01;;;;;;;;;;;15.80;84.20;;;;;;4247437;28;19916;-71
2021/11/14 07:44:04;;;;;;;;;;;15.90;84.30;;;;;;4255885;27;19915;-71
2021/11/14 07:46:07;;;;;;;;;;;15.90;84.20;;;;;;4268927;27;19922;-70
2021/11/14 07:48:11;;;;;;;;;;;15.80;84.20;;;;;;4260341;27;19915;-71
2021/11/14 07:50:15;;;;;;;;;;;15.90;84.30;;;;;;4260216;27;19923;-71
2021/11/14 07:52:18;;;;;;;;;;;15.90;84.30;;;;;;4269480;27;19927;-70
2021/11/14 07:54:20;;;;;;;;;;;15.80;84.10;;;;;;4258385;27;19919;-71
2021/11/14 07:56:23;;;;;;;;;;;15.80;84.10;;;;;;4262757;27;19915;-70
2021/11/14 07:58:26;;;;;;;;;;;15.80;84.00;;;;;;4273438;27;19929;-71
2021/11/14 08:00:29;;;;;;;;;;;15.90;84.20;;;;;;4273944;27;19929;-70
2021/11/14 08:02:32;;;;;;;;;;;15.80;84.10;;;;;;4263628;27;19915;-71
2021/11/14 08:04:36;;;;;;;;;;;15.80;84.10;;;;;;4275476;27;19923;-70
2021/11/14 08:06:39;;;;;;;;;;;15.80;84.10;;;;;;4265920;27;19921;-71
2021/11/14 08:08:41;;;;;;;;;;;15.80;84.10;;;;;;4272224;27;20100;-71
2021/11/14 08:10:44;;;;;;;;;;;15.90;84.20;;;;;;4273649;27;19915;-70
2021/11/14 08:12:47;;;;;;;;;;;15.90;84.60;;;;;;4263621;27;19918;-70
2021/11/14 08:14:50;;;;;;;;;;;15.90;84.10;;;;;;4275413;27;19915;-71
2021/11/14 08:16:53;;;;;;;;;;;15.90;84.10;;;;;;4266877;27;19988;-71
2021/11/14 08:18:56;;;;;;;;;;;15.90;84.20;;;;;;4267699;27;19914;-73
2021/11/14 08:21:00;;;;;;;;;;;15.80;84.10;;;;;;4273403;27;19923;-71
2021/11/14 08:23:03;;;;;;;;;;;15.90;84.40;;;;;;4269616;27;19916;-71
2021/11/14 08:25:07;;;;;;;;;;;15.90;84.10;;;;;;4257991;27;19967;-71
2021/11/14 08:27:09;;;;;;;;;;;15.80;84.10;;;;;;4263283;27;19922;-71
2021/11/14 08:29:12;;;;;;;;;;;15.90;84.30;;;;;;4258069;27;19987;-71
2021/11/14 08:31:20;;;;;;;;;;;15.80;84.10;;;;;;4259318;27;20301;-70
2021/11/14 08:33:25;;;;;;;;;;;15.90;84.50;;;;;;4269604;27;19937;-72
2021/11/14 08:35:28;;;;;;;;;;;15.80;84.70;;;;;;4267106;27;20210;-71
2021/11/14 08:37:32;;;;;;;;;;;15.80;84.10;;;;;;4266804;27;19915;-71
2021/11/14 08:39:35;;;;;;;;;;;15.80;84.10;;;;;;4270304;27;19960;-71
2021/11/14 08:41:38;;;;;;;;;;;15.90;84.10;;;;;;4273486;27;19922;-71
2021/11/14 08:43:41;;;;;;;;;;;15.90;84.10;;;;;;4262507;27;19959;-70
2021/11/14 08:45:43;;;;;;;;;;;15.80;84.00;;;;;;4239683;28;19916;-70
2021/11/14 08:47:46;;;;;;;;;;;15.90;84.10;;;;;;4264577;27;19915;-71
2021/11/14 08:49:49;;;;;;;;;;;15.90;84.10;;;;;;4263030;27;19952;-71
2021/11/14 08:51:52;;;;;;;;;;;15.80;84.00;;;;;;4258818;27;19952;-70
2021/11/14 08:53:58;;;;;;;;;;;15.90;84.20;;;;;;4269223;27;19921;-70
2021/11/14 08:56:02;;;;;;;;;;;15.80;84.00;;;;;;4256131;27;20278;-72
2021/11/14 08:58:05;;;;;;;;;;;15.90;84.10;;;;;;4264538;27;19963;-70
2021/11/14 09:00:09;;;;;;;;;;;15.80;84.20;;;;;;4263263;27;20292;-71
2021/11/14 09:02:12;;;;;;;;;;;15.90;84.50;;;;;;4258817;27;19923;-71
2021/11/14 09:04:15;;;;;;;;;;;15.90;84.20;;;;;;4269526;27;19914;-71
2021/11/14 09:06:17;;;;;;;;;;;15.90;84.10;;;;;;4257545;27;19915;-72
2021/11/14 09:08:20;;;;;;;;;;;15.90;84.10;;;;;;4263305;27;19959;-70
2021/11/14 09:10:24;;;;;;;;;;;15.90;84.00;;;;;;4263664;27;19915;-71
2021/11/14 09:12:27;;;;;;;;;;;15.90;84.00;;;;;;4258048;27;19915;-71
2021/11/14 09:14:30;;;;;;;;;;;15.90;84.10;;;;;;4268723;27;19919;-71
2021/11/14 09:16:33;;;;;;;;;;;15.90;84.30;;;;;;4239329;28;20241;-71
2021/11/14 09:18:36;;;;;;;;;;;15.90;84.40;;;;;;4260502;27;20145;-71
2021/11/14 09:20:38;;;;;;;;;;;15.90;84.60;;;;;;4262449;27;19935;-69
2021/11/14 09:22:42;;;;;;;;;;;15.90;85.60;;;;;;4220039;27;19939;-70
2021/11/14 09:24:47;;;;;;;;;;;15.90;85.50;;;;;;4205156;28;19923;-69
2021/11/14 09:26:54;;;;;;;;;;;15.90;85.30;;;;;;4206075;28;19917;-70
2021/11/14 09:28:57;;;;;;;;;;;15.90;85.40;;;;;;4205273;28;19922;-69
2021/11/14 09:30:59;;;;;;;;;;;15.90;85.60;;;;;;4206195;28;19924;-70
2021/11/14 09:33:03;;;;;;;;;;;15.90;85.90;;;;;;4206092;28;19983;-70
2021/11/14 09:35:07;;;;;;;;;;;15.90;86.40;;;;;;4205536;28;19916;-70
2021/11/14 09:37:10;;;;;;;;;;;15.90;86.30;;;;;;4188672;28;20228;-70
2021/11/14 09:39:13;;;;;;;;;;;16.00;86.70;;;;;;4205787;28;19962;-70
2021/11/14 09:41:16;;;;;;;;;;;16.00;86.60;;;;;;4205719;28;19954;-69
2021/11/14 09:43:21;;;;;;;;;;;15.90;86.70;;;;;;4205587;28;20022;-70
2021/11/14 09:45:25;;;;;;;;;;;16.00;86.70;;;;;;4203703;28;19929;-71
2021/11/14 09:47:28;;;;;;;;;;;16.00;86.90;;;;;;4204692;28;19983;-71
2021/11/14 09:49:32;;;;;;;;;;;16.00;86.80;;;;;;4187825;28;19934;-70
2021/11/14 09:51:35;;;;;;;;;;;15.90;86.80;;;;;;4202430;28;19927;-71
2021/11/14 09:53:39;;;;;;;;;;;16.00;86.80;;;;;;4199682;28;19923;-70
2021/11/14 09:55:48;;;;;;;;;;;16.00;86.70;;;;;;4202325;28;20051;-69
2021/11/14 09:57:54;;;;;;;;;;;16.00;87.10;;;;;;4202324;28;19920;-70
2021/11/14 09:59:58;;;;;;;;;;;16.00;87.00;;;;;;4205416;28;19923;-69
2021/11/14 10:02:02;;;;;;;;;;;16.00;87.20;;;;;;4205463;28;20248;-69
2021/11/14 10:04:07;;;;;;;;;;;16.00;86.90;;;;;;4205236;28;19916;-70
2021/11/14 10:06:10;;;;;;;;;;;16.00;87.10;;;;;;4205155;28;19976;-70
2021/11/14 10:08:13;;;;;;;;;;;16.00;87.00;;;;;;4203190;28;19927;-69
2021/11/14 10:10:16;;;;;;;;;;;16.00;87.10;;;;;;4199349;28;19916;-70
2021/11/14 10:12:38;;;;;;;;;;;16.10;87.30;;;;;;4204290;28;19916;-69
2021/11/14 10:14:42;;;;;;;;;;;16.10;87.00;;;;;;4205245;28;19916;-70
2021/11/14 10:16:47;;;;;;;;;;;16.10;87.00;;;;;;4205159;28;19938;-70
2021/11/14 10:18:51;;;;;;;;;;;16.20;86.60;;;;;;4205381;28;20215;-70
2021/11/14 10:20:57;;;;;;;;;;;16.20;86.60;;;;;;4204801;28;19954;-70
2021/11/14 10:23:01;;;;;;;;;;;16.20;86.70;;;;;;4205395;28;20117;-69
2021/11/14 10:25:04;;;;;;;;;;;16.20;86.70;;;;;;4204858;28;19932;-69
2021/11/14 10:27:09;;;;;;;;;;;16.20;86.60;;;;;;4204947;28;19924;-69
2021/11/14 10:29:12;;;;;;;;;;;16.20;86.50;;;;;;4205032;28;19931;-69
2021/11/14 10:31:20;;;;;;;;;;;16.20;86.60;;;;;;4204786;28;19924;-69
2021/11/14 10:33:25;;;;;;;;;;;16.20;86.60;;;;;;4204981;28;19961;-70
2021/11/14 10:35:28;;;;;;;;;;;16.20;86.50;;;;;;4204469;28;19916;-70
2021/11/14 10:37:35;;;;;;;;;;;16.20;86.70;;;;;;4205356;28;19928;-70
2021/11/14 10:39:38;;;;;;;;;;;16.20;86.50;;;;;;4205069;28;20101;-70
2021/11/14 10:41:44;;;;;;;;;;;16.20;86.50;;;;;;4204682;28;19917;-69
2021/11/14 10:43:48;;;;;;;;;;;16.20;86.50;;;;;;4205122;28;19928;-70
2021/11/14 10:45:52;;;;;;;;;;;16.20;86.70;;;;;;4204998;28;20135;-70
2021/11/14 10:47:55;;;;;;;;;;;16.20;86.70;;;;;;4204696;28;19924;-69
2021/11/14 10:50:00;;;;;;;;;;;16.20;86.70;;;;;;4205095;28;19917;-69
2021/11/14 10:52:05;;;;;;;;;;;16.20;86.80;;;;;;4204555;28;19954;-73
2021/11/14 10:54:10;;;;;;;;;;;16.20;86.90;;;;;;4205061;28;20200;-69
2021/11/14 10:56:14;;;;;;;;;;;16.20;86.70;;;;;;4187355;28;19955;-69
2021/11/14 10:58:18;;;;;;;;;;;16.20;86.70;;;;;;4187413;28;19928;-70
2021/11/14 11:00:21;;;;;;;;;;;16.10;86.70;;;;;;4204787;28;20037;-69
2021/11/14 11:02:25;;;;;;;;;;;16.10;87.10;;;;;;4203561;28;20268;-70
2021/11/14 11:04:28;;;;;;;;;;;16.10;87.40;;;;;;4204894;28;19916;-70
2021/11/14 11:06:33;;;;;;;;;;;16.20;87.10;;;;;;4204974;28;19916;-69
2021/11/14 11:08:37;;;;;;;;;;;16.10;87.10;;;;;;4204500;28;19916;-70
2021/11/14 11:11:02;;;;;;;;;;;16.20;87.10;;;;;;4204591;28;19916;-70
2021/11/14 11:13:05;;;;;;;;;;;16.20;87.10;;;;;;4204512;28;19990;-69
2021/11/14 11:15:12;;;;;;;;;;;16.20;87.30;;;;;;4204559;28;19916;-70
2021/11/14 11:17:15;;;;;;;;;;;16.20;87.20;;;;;;4203689;28;20163;-70
2021/11/14 11:19:23;;;;;;;;;;;16.20;87.30;;;;;;4205441;28;19916;-71
2021/11/14 11:21:28;;;;;;;;;;;16.10;87.30;;;;;;4208083;28;20166;-73
2021/11/14 11:23:34;;;;;;;;;;;16.20;87.30;;;;;;4207465;28;19917;-70
2021/11/14 11:25:38;;;;;;;;;;;16.20;87.10;;;;;;4207988;28;19938;-70
2021/11/14 11:27:51;;;;;;;;;;;16.20;87.20;;;;;;4207710;28;20204;-69
2021/11/14 11:29:54;;;;;;;;;;;16.20;87.30;;;;;;4206869;28;19917;-70
2021/11/14 11:31:57;;;;;;;;;;;16.20;87.20;;;;;;4207770;28;20254;-70
2021/11/14 11:34:00;;;;;;;;;;;16.20;87.30;;;;;;4206952;28;19916;-70
2021/11/14 11:36:04;;;;;;;;;;;16.20;87.40;;;;;;4206552;28;19922;-69
2021/11/14 11:38:07;;;;;;;;;;;16.20;87.10;;;;;;4207618;28;19924;-69
2021/11/14 11:40:14;;;;;;;;;;;16.20;87.10;;;;;;4188872;28;20172;-70
2021/11/14 11:42:17;;;;;;;;;;;16.20;87.20;;;;;;4203172;28;19962;-73
2021/11/14 11:44:31;;;;;;;;;;;16.20;87.30;;;;;;4203116;28;20242;-70
2021/11/14 11:46:35;;;;;;;;;;;16.20;87.30;;;;;;4206670;28;19917;-69
2021/11/14 11:48:41;;;;;;;;;;;16.20;87.20;;;;;;4203530;28;20014;-69
2021/11/14 11:50:44;;;;;;;;;;;16.20;87.20;;;;;;4203860;28;19923;-69
2021/11/14 11:52:47;;;;;;;;;;;16.20;87.20;;;;;;4204933;28;19916;-69
2021/11/14 11:54:50;;;;;;;;;;;16.20;87.30;;;;;;4197737;28;19920;-69
2021/11/14 11:57:00;;;;;;;;;;;16.20;87.30;;;;;;4205985;28;19923;-70
2021/11/14 11:59:09;;;;;;;;;;;16.20;87.30;;;;;;4207515;28;19922;-70